Time;durP1;ratioP1;P1;durP2;ratioP2;P2;SDS_P1;SDS_P2;PMS_P1;PMS_P2;Temp;Humidity;BMP_temperature;BMP_pressure;BME280_temperature;BME280_humidity;BME280_pressure;Samples;Min_cycle;Max_cycle;Signal;HPM_P1;HPM_P2
2022/11/08 00:02:04;;;;;;;;;;;6.80;99.90;;;;;;5042149;28;19924;-69
2022/11/08 00:04:31;;;;;;;;;;;6.80;99.90;;;;;;5043017;28;19992;-68
2022/11/08 00:15:11;;;;;;;;;;;6.60;99.90;;;;;;5042778;28;19959;-70
2022/11/08 00:17:38;;;;;;;;;;;6.60;99.90;;;;;;5042959;28;19987;-70
2022/11/08 00:20:05;;;;;;;;;;;6.60;99.90;;;;;;5043032;28;20316;-69
2022/11/08 00:22:32;;;;;;;;;;;6.60;99.90;;;;;;5043431;28;19921;-68
2022/11/08 00:25:00;;;;;;;;;;;6.50;99.90;;;;;;5042892;28;20145;-69
2022/11/08 00:27:27;;;;;;;;;;;6.50;99.90;;;;;;5043212;28;19988;-69
2022/11/08 00:29:53;;;;;;;;;;;6.50;99.90;;;;;;5043276;28;19984;-69
2022/11/08 00:32:21;;;;;;;;;;;6.40;99.90;;;;;;5043266;28;20000;-68
2022/11/08 00:34:48;;;;;;;;;;;6.40;99.90;;;;;;5042451;28;19992;-69
2022/11/08 00:37:14;;;;;;;;;;;6.40;99.90;;;;;;5042796;28;19921;-70
2022/11/08 00:39:41;;;;;;;;;;;6.40;99.90;;;;;;5043131;28;19956;-69
2022/11/08 00:42:09;;;;;;;;;;;6.30;99.90;;;;;;5036534;28;19953;-69
2022/11/08 00:44:36;;;;;;;;;;;6.30;99.90;;;;;;5022436;28;19992;-69
2022/11/08 00:47:02;;;;;;;;;;;6.30;99.90;;;;;;5023053;28;19981;-68
2022/11/08 00:49:29;;;;;;;;;;;6.30;99.90;;;;;;5039856;28;19980;-68
2022/11/08 00:51:56;;;;;;;;;;;6.30;99.90;;;;;;5043184;28;19984;-69
2022/11/08 00:54:23;;;;;;;;;;;6.30;99.90;;;;;;5042690;28;20280;-69
2022/11/08 00:56:50;;;;;;;;;;;6.30;99.90;;;;;;5041968;28;20285;-69
2022/11/08 00:59:18;;;;;;;;;;;6.30;99.90;;;;;;5042982;28;19992;-69
2022/11/08 01:01:45;;;;;;;;;;;6.20;99.90;;;;;;5043011;28;19953;-69
2022/11/08 01:04:12;;;;;;;;;;;6.10;99.90;;;;;;5042664;28;19949;-68
2022/11/08 01:06:40;;;;;;;;;;;6.10;99.90;;;;;;5041963;28;20015;-69
2022/11/08 01:09:07;;;;;;;;;;;6.20;99.90;;;;;;5042953;28;19948;-69
2022/11/08 01:11:34;;;;;;;;;;;6.10;99.90;;;;;;5042980;28;19949;-68
2022/11/08 01:14:01;;;;;;;;;;;6.10;99.90;;;;;;5045657;28;19996;-70
2022/11/08 01:16:30;;;;;;;;;;;6.00;99.90;;;;;;5045795;28;20267;-69
2022/11/08 01:18:57;;;;;;;;;;;5.90;99.90;;;;;;5042685;28;19959;-69
2022/11/08 01:21:24;;;;;;;;;;;5.90;99.90;;;;;;5046594;28;20140;-69
2022/11/08 01:23:50;;;;;;;;;;;5.80;99.90;;;;;;5026744;28;19992;-69
2022/11/08 01:26:18;;;;;;;;;;;5.80;99.90;;;;;;5025549;28;19992;-68
2022/11/08 01:28:45;;;;;;;;;;;5.80;99.90;;;;;;5026546;28;19988;-68
2022/11/08 01:31:13;;;;;;;;;;;5.70;99.90;;;;;;5026532;28;19922;-68
2022/11/08 01:33:42;;;;;;;;;;;5.70;99.90;;;;;;5026064;28;19985;-68
2022/11/08 01:36:09;;;;;;;;;;;5.70;99.90;;;;;;5025609;28;20000;-69
2022/11/08 01:38:36;;;;;;;;;;;5.70;99.90;;;;;;5026186;28;20004;-68
2022/11/08 01:41:03;;;;;;;;;;;5.70;99.90;;;;;;5029091;28;19996;-69
2022/11/08 01:43:40;;;;;;;;;;;5.70;99.90;;;;;;5045993;28;20138;-69
2022/11/08 01:46:20;;;;;;;;;;;5.60;99.90;;;;;;5045423;28;19963;-69
2022/11/08 01:48:49;;;;;;;;;;;5.60;99.90;;;;;;5045716;28;19964;-69
2022/11/08 01:51:17;;;;;;;;;;;5.60;99.90;;;;;;5046028;28;19956;-69
2022/11/08 01:53:44;;;;;;;;;;;5.60;99.90;;;;;;5045956;28;20157;-69
2022/11/08 01:56:12;;;;;;;;;;;5.60;99.90;;;;;;5045000;28;19988;-68
2022/11/08 01:58:40;;;;;;;;;;;5.60;99.90;;;;;;5045608;28;19984;-69
2022/11/08 02:01:06;;;;;;;;;;;5.60;99.90;;;;;;5045768;28;19984;-69
2022/11/08 02:03:34;;;;;;;;;;;5.60;99.90;;;;;;5045508;28;20183;-70
2022/11/08 02:06:03;;;;;;;;;;;5.50;99.90;;;;;;5044707;28;19963;-68
2022/11/08 02:08:33;;;;;;;;;;;5.50;99.90;;;;;;5023421;28;19964;-68
2022/11/08 02:11:00;;;;;;;;;;;5.50;99.90;;;;;;5028830;28;19921;-68
2022/11/08 02:13:27;;;;;;;;;;;5.50;99.90;;;;;;5045364;28;19956;-69
2022/11/08 02:15:54;;;;;;;;;;;5.40;99.90;;;;;;5044369;28;20264;-68
2022/11/08 02:18:23;;;;;;;;;;;5.40;99.90;;;;;;5045081;28;19980;-69
2022/11/08 02:20:55;;;;;;;;;;;5.40;99.90;;;;;;5045254;28;19952;-69
2022/11/08 02:23:25;;;;;;;;;;;5.40;99.90;;;;;;5045359;28;19984;-68
2022/11/08 02:25:53;;;;;;;;;;;5.40;99.90;;;;;;5043454;28;20171;-69
2022/11/08 02:28:19;;;;;;;;;;;5.40;99.90;;;;;;5044772;28;19921;-68
2022/11/08 02:30:46;;;;;;;;;;;5.40;99.90;;;;;;5045040;28;19928;-69
2022/11/08 02:33:14;;;;;;;;;;;5.30;99.90;;;;;;5045144;28;19984;-69
2022/11/08 02:35:41;;;;;;;;;;;5.30;99.90;;;;;;5044340;28;19987;-69
2022/11/08 02:38:08;;;;;;;;;;;5.30;99.90;;;;;;5032424;28;19988;-69
2022/11/08 02:40:44;;;;;;;;;;;5.30;99.90;;;;;;5025045;28;20324;-68
2022/11/08 02:43:12;;;;;;;;;;;5.30;99.90;;;;;;5025161;28;19975;-69
2022/11/08 02:45:39;;;;;;;;;;;5.30;99.90;;;;;;5024139;28;20133;-68
2022/11/08 02:48:06;;;;;;;;;;;5.30;99.90;;;;;;5030212;28;19925;-69
2022/11/08 02:50:33;;;;;;;;;;;5.20;99.90;;;;;;5044764;28;19963;-69
2022/11/08 02:52:59;;;;;;;;;;;5.20;99.90;;;;;;5041529;28;19992;-68
2022/11/08 02:55:26;;;;;;;;;;;5.20;99.90;;;;;;5044015;28;19989;-69
2022/11/08 02:57:53;;;;;;;;;;;5.10;99.90;;;;;;5044760;28;19988;-69
2022/11/08 03:00:21;;;;;;;;;;;5.10;99.90;;;;;;5044471;28;19996;-69
2022/11/08 03:02:50;;;;;;;;;;;5.10;99.90;;;;;;5025285;28;19993;-70
2022/11/08 03:05:16;;;;;;;;;;;5.10;99.90;;;;;;5024036;28;20102;-68
2022/11/08 03:07:43;;;;;;;;;;;5.10;99.90;;;;;;5024561;28;19952;-69
2022/11/08 03:10:10;;;;;;;;;;;5.00;99.90;;;;;;5024587;28;19936;-69
2022/11/08 03:12:36;;;;;;;;;;;5.00;99.90;;;;;;5024215;28;19992;-68
2022/11/08 03:15:03;;;;;;;;;;;5.00;99.90;;;;;;5035231;28;19988;-68
2022/11/08 03:17:32;;;;;;;;;;;5.00;99.90;;;;;;5044201;28;19984;-69
2022/11/08 03:19:58;;;;;;;;;;;4.90;99.90;;;;;;5043951;28;20256;-69
2022/11/08 03:22:25;;;;;;;;;;;4.90;99.90;;;;;;5043903;28;19927;-69
2022/11/08 03:24:52;;;;;;;;;;;4.90;99.90;;;;;;5043684;28;20284;-68
2022/11/08 03:27:18;;;;;;;;;;;4.90;99.90;;;;;;5047527;28;19952;-68
2022/11/08 03:29:45;;;;;;;;;;;4.80;99.90;;;;;;5041081;28;19921;-69
2022/11/08 03:32:12;;;;;;;;;;;4.80;99.90;;;;;;5043245;28;19948;-69
2022/11/08 03:34:40;;;;;;;;;;;4.80;99.90;;;;;;5043162;28;19985;-69
2022/11/08 03:37:08;;;;;;;;;;;4.80;99.90;;;;;;5043564;28;19929;-68
2022/11/08 03:39:34;;;;;;;;;;;4.80;99.90;;;;;;5043342;28;20183;-68
2022/11/08 03:42:02;;;;;;;;;;;4.80;99.90;;;;;;5043924;28;19953;-69
2022/11/08 03:44:28;;;;;;;;;;;4.70;99.90;;;;;;5043736;28;20148;-69
2022/11/08 03:47:02;;;;;;;;;;;4.80;99.90;;;;;;5042471;28;19952;-68
2022/11/08 03:49:29;;;;;;;;;;;4.70;99.90;;;;;;5043627;28;19984;-69
2022/11/08 03:51:56;;;;;;;;;;;4.70;99.90;;;;;;5043715;28;20004;-69
2022/11/08 03:54:23;;;;;;;;;;;4.70;99.90;;;;;;5043409;28;19993;-69
2022/11/08 03:56:50;;;;;;;;;;;4.70;99.90;;;;;;5042917;28;19992;-69
2022/11/08 03:59:16;;;;;;;;;;;4.70;99.90;;;;;;5043681;28;20004;-69
2022/11/08 04:01:43;;;;;;;;;;;4.70;99.90;;;;;;5043311;28;20171;-69
2022/11/08 04:04:10;;;;;;;;;;;4.70;99.90;;;;;;5043358;28;19928;-68
2022/11/08 04:06:36;;;;;;;;;;;4.70;99.90;;;;;;5042791;28;19959;-69
2022/11/08 04:09:04;;;;;;;;;;;4.80;99.90;;;;;;5043413;28;19948;-68
2022/11/08 04:16:59;;;;;;;;;;;4.70;99.90;;;;;;5042891;28;19959;-69
2022/11/08 04:22:10;;;;;;;;;;;4.70;99.90;;;;;;5043217;28;19992;-69
2022/11/08 04:24:38;;;;;;;;;;;4.60;99.90;;;;;;5042810;28;19956;-68
2022/11/08 04:27:05;;;;;;;;;;;4.60;99.90;;;;;;5042932;28;19984;-69
2022/11/08 04:29:32;;;;;;;;;;;4.60;99.90;;;;;;5042819;28;20244;-68
2022/11/08 04:31:58;;;;;;;;;;;4.50;99.90;;;;;;5043031;28;19988;-68
2022/11/08 04:34:25;;;;;;;;;;;4.50;99.90;;;;;;5043306;28;19984;-68
2022/11/08 04:36:51;;;;;;;;;;;4.50;99.90;;;;;;5042381;28;20185;-69
2022/11/08 04:39:18;;;;;;;;;;;4.40;99.90;;;;;;5043044;28;19992;-69
2022/11/08 04:41:47;;;;;;;;;;;4.40;99.90;;;;;;5041434;28;19980;-68
2022/11/08 04:44:17;;;;;;;;;;;4.40;99.90;;;;;;5042706;28;19921;-69
2022/11/08 04:46:44;;;;;;;;;;;4.30;99.90;;;;;;5041402;28;19928;-68
2022/11/08 04:49:11;;;;;;;;;;;4.30;99.90;;;;;;5046366;28;19959;-69
2022/11/08 04:51:38;;;;;;;;;;;4.30;99.90;;;;;;5047003;28;20157;-68
2022/11/08 04:54:06;;;;;;;;;;;4.30;99.90;;;;;;5046692;28;19957;-67
2022/11/08 04:56:33;;;;;;;;;;;4.30;99.90;;;;;;5046243;28;19921;-69
2022/11/08 04:59:01;;;;;;;;;;;4.30;99.90;;;;;;5046725;28;19921;-69
2022/11/08 05:01:29;;;;;;;;;;;4.30;99.90;;;;;;5046975;28;19956;-68
2022/11/08 05:03:56;;;;;;;;;;;4.30;99.90;;;;;;5046793;28;19988;-68
2022/11/08 05:06:23;;;;;;;;;;;4.20;99.90;;;;;;5046291;28;19989;-68
2022/11/08 05:08:50;;;;;;;;;;;4.20;99.90;;;;;;5046610;28;19988;-69
2022/11/08 05:11:17;;;;;;;;;;;4.20;99.90;;;;;;5046724;28;19989;-69
2022/11/08 05:13:44;;;;;;;;;;;4.10;99.90;;;;;;5046266;28;19963;-69
2022/11/08 05:16:13;;;;;;;;;;;4.10;99.90;;;;;;5045792;28;20165;-69
2022/11/08 05:18:40;;;;;;;;;;;4.10;99.90;;;;;;5046490;28;19991;-68
2022/11/08 05:23:52;;;;;;;;;;;4.10;99.90;;;;;;5046257;28;19964;-69
2022/11/08 05:26:19;;;;;;;;;;;4.10;99.90;;;;;;5045447;28;19959;-69
2022/11/08 05:28:46;;;;;;;;;;;4.00;99.90;;;;;;5046117;28;19948;-69
2022/11/08 05:31:14;;;;;;;;;;;4.00;99.90;;;;;;5039381;28;19984;-69
2022/11/08 05:33:40;;;;;;;;;;;4.00;99.90;;;;;;5045304;28;19992;-69
2022/11/08 05:36:09;;;;;;;;;;;4.00;99.90;;;;;;5045406;28;19992;-69
2022/11/08 05:38:35;;;;;;;;;;;4.00;99.90;;;;;;5045682;28;19932;-68
2022/11/08 05:41:03;;;;;;;;;;;4.00;99.90;;;;;;5046130;28;19925;-69
2022/11/08 05:43:33;;;;;;;;;;;4.00;99.90;;;;;;5040911;28;19921;-69
2022/11/08 05:46:00;;;;;;;;;;;4.00;99.90;;;;;;5045033;28;19963;-69
2022/11/08 05:48:28;;;;;;;;;;;3.90;99.90;;;;;;5049888;28;20231;-68
2022/11/08 05:50:55;;;;;;;;;;;4.00;99.90;;;;;;5065877;28;19988;-68
2022/11/08 05:53:22;;;;;;;;;;;3.90;99.90;;;;;;5065901;28;19956;-68
2022/11/08 05:55:48;;;;;;;;;;;4.00;99.90;;;;;;5064970;28;19991;-68
2022/11/08 05:58:15;;;;;;;;;;;3.90;99.90;;;;;;5065585;28;19975;-68
2022/11/08 06:00:42;;;;;;;;;;;3.90;99.90;;;;;;5054893;28;19968;-68
2022/11/08 06:03:08;;;;;;;;;;;4.00;99.90;;;;;;5045610;28;19960;-68
2022/11/08 06:05:36;;;;;;;;;;;4.00;99.90;;;;;;5044803;28;19956;-68
2022/11/08 06:08:03;;;;;;;;;;;4.00;99.90;;;;;;5045303;28;19921;-68
2022/11/08 06:10:30;;;;;;;;;;;4.00;99.90;;;;;;5045592;28;19952;-69
2022/11/08 06:12:58;;;;;;;;;;;4.00;99.90;;;;;;5045252;28;20299;-69
2022/11/08 06:15:24;;;;;;;;;;;4.00;99.90;;;;;;5044684;28;19964;-69
2022/11/08 06:17:51;;;;;;;;;;;4.00;99.90;;;;;;5045318;28;19957;-69
2022/11/08 06:20:18;;;;;;;;;;;4.00;99.90;;;;;;5028944;28;19992;-68
2022/11/08 06:22:46;;;;;;;;;;;4.00;99.90;;;;;;5025397;28;19988;-70
2022/11/08 06:25:12;;;;;;;;;;;4.00;99.90;;;;;;5024667;28;19949;-69
2022/11/08 06:27:39;;;;;;;;;;;4.10;99.90;;;;;;5025094;28;19993;-71
2022/11/08 06:30:06;;;;;;;;;;;4.10;99.90;;;;;;5025072;28;19952;-68
2022/11/08 06:32:33;;;;;;;;;;;4.10;99.90;;;;;;5025187;28;19952;-68
2022/11/08 06:34:59;;;;;;;;;;;4.10;99.90;;;;;;5024320;28;19996;-69
2022/11/08 06:37:26;;;;;;;;;;;4.10;99.90;;;;;;5025146;28;19949;-69
2022/11/08 06:39:54;;;;;;;;;;;4.30;99.90;;;;;;5025070;28;20181;-69
2022/11/08 06:42:21;;;;;;;;;;;4.10;99.90;;;;;;5033105;28;19989;-69
2022/11/08 06:44:47;;;;;;;;;;;4.10;99.90;;;;;;5044273;28;19960;-69
2022/11/08 06:47:14;;;;;;;;;;;4.10;99.90;;;;;;5024981;28;20001;-68
2022/11/08 06:49:41;;;;;;;;;;;4.10;99.90;;;;;;5046997;28;19967;-69
2022/11/08 06:52:08;;;;;;;;;;;4.10;99.90;;;;;;5048519;28;19921;-69
2022/11/08 06:54:34;;;;;;;;;;;4.10;99.90;;;;;;5043871;28;20232;-69
2022/11/08 06:57:02;;;;;;;;;;;4.10;99.90;;;;;;5057701;28;20161;-69
2022/11/08 06:59:29;;;;;;;;;;;4.20;99.90;;;;;;5064463;28;19920;-69
2022/11/08 07:01:56;;;;;;;;;;;4.10;99.90;;;;;;5052302;28;19988;-69
2022/11/08 07:04:23;;;;;;;;;;;4.20;99.90;;;;;;5044429;28;19925;-69
2022/11/08 07:06:49;;;;;;;;;;;4.20;99.90;;;;;;5043756;28;19921;-69
2022/11/08 07:09:17;;;;;;;;;;;4.30;99.90;;;;;;5043170;28;20002;-68
2022/11/08 07:11:44;;;;;;;;;;;4.30;99.90;;;;;;5043920;28;19952;-69
2022/11/08 07:14:12;;;;;;;;;;;4.30;99.90;;;;;;5055342;28;19959;-69
2022/11/08 07:16:38;;;;;;;;;;;4.40;99.90;;;;;;5063241;28;20172;-68
2022/11/08 07:19:05;;;;;;;;;;;4.30;99.90;;;;;;5055268;28;20000;-69
2022/11/08 07:21:31;;;;;;;;;;;4.30;99.90;;;;;;5044225;28;19989;-69
2022/11/08 07:23:58;;;;;;;;;;;4.40;99.90;;;;;;5024469;28;20141;-69
2022/11/08 07:26:25;;;;;;;;;;;4.50;99.90;;;;;;5023642;28;19953;-70
2022/11/08 07:28:51;;;;;;;;;;;4.50;99.90;;;;;;5024169;28;19993;-70
2022/11/08 07:31:20;;;;;;;;;;;4.50;99.90;;;;;;5024293;28;19988;-70
2022/11/08 07:33:47;;;;;;;;;;;4.50;99.90;;;;;;5024158;28;19968;-69
2022/11/08 07:36:13;;;;;;;;;;;4.60;99.90;;;;;;5023420;28;20162;-70
2022/11/08 07:38:40;;;;;;;;;;;4.60;99.90;;;;;;5023856;28;19953;-71
2022/11/08 07:41:07;;;;;;;;;;;4.60;99.90;;;;;;5024057;28;20161;-69
2022/11/08 07:43:33;;;;;;;;;;;4.70;99.90;;;;;;5023876;28;19956;-68
2022/11/08 07:46:01;;;;;;;;;;;4.70;99.90;;;;;;5023000;28;19949;-69
2022/11/08 07:48:30;;;;;;;;;;;4.90;99.90;;;;;;5029351;28;19963;-69
2022/11/08 07:50:57;;;;;;;;;;;4.90;99.90;;;;;;5043874;28;19960;-69
2022/11/08 07:53:24;;;;;;;;;;;5.00;99.90;;;;;;5043515;28;19921;-69
2022/11/08 07:55:52;;;;;;;;;;;5.10;99.90;;;;;;5040253;28;19990;-69
2022/11/08 07:58:19;;;;;;;;;;;5.20;99.90;;;;;;5043661;28;20148;-69
2022/11/08 08:00:48;;;;;;;;;;;5.20;99.90;;;;;;5067437;23;19929;-71
2022/11/08 08:03:15;;;;;;;;;;;5.30;99.90;;;;;;5038347;28;19929;-72
2022/11/08 08:05:44;;;;;;;;;;;5.40;99.90;;;;;;5047552;28;19949;-73
2022/11/08 08:08:12;;;;;;;;;;;5.50;99.90;;;;;;5043896;28;19972;-70
2022/11/08 08:10:39;;;;;;;;;;;5.60;99.90;;;;;;5044008;28;19928;-69
2022/11/08 08:13:06;;;;;;;;;;;5.70;99.90;;;;;;5043638;28;19976;-71
2022/11/08 08:15:32;;;;;;;;;;;5.80;99.90;;;;;;5042831;28;19992;-70
2022/11/08 08:17:59;;;;;;;;;;;5.90;99.90;;;;;;5043325;28;20001;-69
2022/11/08 08:20:26;;;;;;;;;;;6.00;99.90;;;;;;5043620;28;19952;-70
2022/11/08 08:22:54;;;;;;;;;;;6.10;99.90;;;;;;5044861;28;19983;-69
2022/11/08 08:25:21;;;;;;;;;;;6.20;99.90;;;;;;5046815;28;19956;-70
2022/11/08 08:27:47;;;;;;;;;;;6.30;99.90;;;;;;5047716;28;19988;-71
2022/11/08 08:30:14;;;;;;;;;;;6.30;99.90;;;;;;5047336;28;20232;-72
2022/11/08 08:32:41;;;;;;;;;;;6.40;99.90;;;;;;5047715;28;19949;-69
2022/11/08 08:35:08;;;;;;;;;;;6.60;99.90;;;;;;5047031;28;19988;-70
2022/11/08 08:37:35;;;;;;;;;;;6.70;99.90;;;;;;5052851;28;19992;-70
2022/11/08 08:40:03;;;;;;;;;;;6.80;99.90;;;;;;5067250;28;20201;-70
2022/11/08 08:42:29;;;;;;;;;;;6.90;99.90;;;;;;5052695;28;19989;-70
2022/11/08 08:44:56;;;;;;;;;;;7.00;99.90;;;;;;5046569;28;19996;-70
2022/11/08 08:47:22;;;;;;;;;;;7.10;99.90;;;;;;5047383;28;20001;-70
2022/11/08 08:49:50;;;;;;;;;;;7.20;99.90;;;;;;5044237;28;19988;-70
2022/11/08 08:52:17;;;;;;;;;;;7.20;99.90;;;;;;5046295;28;19984;-70
2022/11/08 08:54:43;;;;;;;;;;;7.30;99.90;;;;;;5049611;28;20000;-71
2022/11/08 08:57:11;;;;;;;;;;;7.40;99.90;;;;;;5032231;28;19989;-69
2022/11/08 08:59:38;;;;;;;;;;;7.40;99.90;;;;;;5027220;28;19968;-69
2022/11/08 09:02:05;;;;;;;;;;;7.50;99.90;;;;;;5041185;28;19984;-69
2022/11/08 09:04:31;;;;;;;;;;;7.60;99.90;;;;;;5046749;28;20157;-70
2022/11/08 09:06:58;;;;;;;;;;;7.60;99.90;;;;;;5046597;28;20263;-71
2022/11/08 09:09:24;;;;;;;;;;;7.80;99.90;;;;;;5047000;28;19927;-70
2022/11/08 09:11:51;;;;;;;;;;;7.90;99.90;;;;;;5046939;28;20144;-70
2022/11/08 09:14:19;;;;;;;;;;;8.00;99.90;;;;;;5046646;28;19921;-70
2022/11/08 09:16:46;;;;;;;;;;;8.00;99.90;;;;;;5046273;28;19957;-70
2022/11/08 09:19:12;;;;;;;;;;;8.10;99.90;;;;;;5046779;28;19988;-71
2022/11/08 09:21:39;;;;;;;;;;;8.20;99.90;;;;;;5046577;28;19988;-70
2022/11/08 09:24:06;;;;;;;;;;;8.30;99.90;;;;;;5046932;28;19992;-71
2022/11/08 09:26:32;;;;;;;;;;;8.30;99.90;;;;;;5046005;28;19988;-71
2022/11/08 09:28:59;;;;;;;;;;;8.40;99.90;;;;;;5046524;28;19988;-70
2022/11/08 09:31:27;;;;;;;;;;;8.50;99.90;;;;;;5046567;28;19956;-71
2022/11/08 09:33:59;;;;;;;;;;;8.60;99.90;;;;;;5029560;28;19984;-71
2022/11/08 09:36:26;;;;;;;;;;;8.70;99.90;;;;;;5026099;28;19986;-70
2022/11/08 09:38:52;;;;;;;;;;;8.90;99.90;;;;;;5026653;28;19922;-71
2022/11/08 09:41:27;;;;;;;;;;;9.00;99.90;;;;;;5026557;28;19992;-70
2022/11/08 09:44:02;;;;;;;;;;;9.10;99.90;;;;;;5030037;28;20224;-70
2022/11/08 09:46:33;;;;;;;;;;;9.30;99.90;;;;;;5036282;28;19981;-70
2022/11/08 09:49:01;;;;;;;;;;;9.40;99.90;;;;;;5039074;28;19960;-70
2022/11/08 09:51:28;;;;;;;;;;;9.50;99.90;;;;;;5045961;28;20232;-70
2022/11/08 09:53:57;;;;;;;;;;;9.50;99.90;;;;;;5046366;28;19921;-70
2022/11/08 09:56:25;;;;;;;;;;;9.60;99.90;;;;;;5045534;28;20159;-70
2022/11/08 09:58:53;;;;;;;;;;;9.70;99.90;;;;;;5046228;28;19932;-69
2022/11/08 10:01:20;;;;;;;;;;;9.70;99.90;;;;;;5046074;28;19964;-70
2022/11/08 10:03:50;;;;;;;;;;;9.90;99.90;;;;;;5046123;28;19984;-70
2022/11/08 10:06:47;;;;;;;;;;;10.00;99.90;;;;;;5045704;28;19921;-71
2022/11/08 10:09:19;;;;;;;;;;;10.10;99.90;;;;;;4985093;28;19985;-72
2022/11/08 10:11:53;;;;;;;;;;;10.10;99.90;;;;;;5033707;28;19984;-70
2022/11/08 10:14:31;;;;;;;;;;;10.10;99.90;;;;;;5045927;28;19963;-70
2022/11/08 10:17:08;;;;;;;;;;;10.10;99.90;;;;;;5045785;28;19956;-70
2022/11/08 10:19:46;;;;;;;;;;;10.10;99.90;;;;;;5045779;28;19921;-70
2022/11/08 10:22:17;;;;;;;;;;;10.20;99.90;;;;;;5045923;28;19980;-71
2022/11/08 10:24:52;;;;;;;;;;;10.30;99.90;;;;;;5044231;28;19921;-71
2022/11/08 10:27:23;;;;;;;;;;;10.30;99.90;;;;;;5045750;28;19921;-72
2022/11/08 10:29:51;;;;;;;;;;;10.30;99.90;;;;;;5045210;28;19964;-71
2022/11/08 10:32:19;;;;;;;;;;;10.50;99.90;;;;;;5045159;28;19957;-71
2022/11/08 10:34:50;;;;;;;;;;;10.60;99.90;;;;;;5044651;28;19967;-71
2022/11/08 10:37:19;;;;;;;;;;;10.70;99.90;;;;;;5043830;28;19988;-71
2022/11/08 10:39:50;;;;;;;;;;;10.90;99.90;;;;;;5028895;28;20176;-70
2022/11/08 10:42:21;;;;;;;;;;;11.10;99.90;;;;;;5045063;28;20232;-71
2022/11/08 10:44:48;;;;;;;;;;;11.40;99.90;;;;;;5044033;28;20012;-71
2022/11/08 10:47:20;;;;;;;;;;;11.60;99.90;;;;;;5044780;28;19956;-71
2022/11/08 10:49:48;;;;;;;;;;;11.80;99.90;;;;;;5045044;28;19980;-71
2022/11/08 10:52:17;;;;;;;;;;;11.90;99.90;;;;;;5043270;28;20232;-71
2022/11/08 10:54:45;;;;;;;;;;;12.20;99.90;;;;;;5043305;28;19984;-70
2022/11/08 10:57:12;;;;;;;;;;;12.30;99.90;;;;;;5045118;28;19980;-71
2022/11/08 10:59:39;;;;;;;;;;;12.60;99.90;;;;;;5044880;28;19985;-70
2022/11/08 11:02:21;;;;;;;;;;;12.70;99.90;;;;;;5044573;28;19959;-71
2022/11/08 11:04:49;;;;;;;;;;;12.90;99.90;;;;;;5044218;28;19983;-72
2022/11/08 11:07:27;;;;;;;;;;;13.10;99.90;;;;;;5044708;28;19967;-71
2022/11/08 11:09:54;;;;;;;;;;;13.20;99.90;;;;;;5044865;28;19980;-70
2022/11/08 11:12:21;;;;;;;;;;;13.20;99.90;;;;;;5044860;28;20171;-70
2022/11/08 11:14:55;;;;;;;;;;;13.20;99.90;;;;;;5044038;28;19963;-71
2022/11/08 11:17:24;;;;;;;;;;;13.30;99.90;;;;;;5044797;28;20017;-70
2022/11/08 11:19:54;;;;;;;;;;;13.40;99.90;;;;;;5044439;28;20268;-70
2022/11/08 11:22:24;;;;;;;;;;;13.50;99.90;;;;;;5044374;28;20319;-71
2022/11/08 11:24:53;;;;;;;;;;;13.60;99.90;;;;;;5043384;28;20158;-70
2022/11/08 11:27:21;;;;;;;;;;;13.90;99.90;;;;;;5043911;28;19983;-70
2022/11/08 11:29:48;;;;;;;;;;;14.20;99.90;;;;;;5043737;28;19961;-71
2022/11/08 11:32:22;;;;;;;;;;;14.40;99.90;;;;;;5044312;28;19928;-71
2022/11/08 11:34:51;;;;;;;;;;;14.50;99.90;;;;;;5043285;28;19921;-71
2022/11/08 11:37:34;;;;;;;;;;;14.60;99.90;;;;;;5043455;28;20898;-70
2022/11/08 11:40:04;;;;;;;;;;;14.70;99.90;;;;;;5024105;28;19928;-70
2022/11/08 11:42:34;;;;;;;;;;;14.60;99.90;;;;;;5038835;28;19984;-70
2022/11/08 11:45:06;;;;;;;;;;;14.50;99.90;;;;;;5041214;28;19992;-70
2022/11/08 11:47:35;;;;;;;;;;;14.50;99.90;;;;;;5042866;28;19960;-70
2022/11/08 11:50:04;;;;;;;;;;;14.40;99.90;;;;;;5041508;28;19957;-71
2022/11/08 11:52:32;;;;;;;;;;;14.40;99.90;;;;;;5040461;28;20172;-72
2022/11/08 11:54:59;;;;;;;;;;;14.20;99.90;;;;;;5043523;28;19959;-70
2022/11/08 11:57:28;;;;;;;;;;;14.10;99.90;;;;;;5043547;28;20277;-71
2022/11/08 12:00:02;;;;;;;;;;;14.00;99.90;;;;;;5043716;28;19983;-69
2022/11/08 12:02:50;;;;;;;;;;;13.90;99.90;;;;;;5044147;28;19921;-71
2022/11/08 12:05:29;;;;;;;;;;;13.90;99.90;;;;;;5042256;28;20013;-71
2022/11/08 12:08:01;;;;;;;;;;;13.90;99.90;;;;;;5048435;28;19996;-70
2022/11/08 12:10:31;;;;;;;;;;;13.90;99.90;;;;;;5052356;28;19956;-70
2022/11/08 12:13:00;;;;;;;;;;;13.90;99.90;;;;;;5043428;28;20318;-70
2022/11/08 12:15:29;;;;;;;;;;;13.80;99.90;;;;;;5042866;28;19952;-69
2022/11/08 12:18:20;;;;;;;;;;;13.80;99.90;;;;;;5041102;28;19921;-71
2022/11/08 12:20:52;;;;;;;;;;;13.70;99.90;;;;;;5029673;28;19921;-70
2022/11/08 12:23:36;;;;;;;;;;;13.60;99.90;;;;;;5023790;28;19956;-69
2022/11/08 12:26:07;;;;;;;;;;;13.50;99.90;;;;;;5031533;28;19977;-70
2022/11/08 12:28:40;;;;;;;;;;;13.40;99.90;;;;;;5040387;28;19997;-70
2022/11/08 12:31:16;;;;;;;;;;;13.40;99.90;;;;;;5043717;28;19957;-71
2022/11/08 12:33:51;;;;;;;;;;;13.30;99.90;;;;;;5043709;28;19971;-70
2022/11/08 12:36:20;;;;;;;;;;;13.30;99.90;;;;;;5042860;28;19984;-71
2022/11/08 12:38:56;;;;;;;;;;;13.20;99.90;;;;;;5043361;28;19985;-70
2022/11/08 12:41:27;;;;;;;;;;;13.20;99.90;;;;;;5043226;28;20182;-75
2022/11/08 12:44:07;;;;;;;;;;;13.10;99.90;;;;;;5042987;28;19960;-70
2022/11/08 12:46:37;;;;;;;;;;;13.00;99.90;;;;;;5042933;28;19953;-71
2022/11/08 12:49:13;;;;;;;;;;;13.00;99.90;;;;;;5043227;28;19988;-71
2022/11/08 12:51:44;;;;;;;;;;;13.00;99.90;;;;;;5043574;28;20003;-71
2022/11/08 12:54:22;;;;;;;;;;;13.00;99.90;;;;;;5041201;28;19960;-70
2022/11/08 12:56:51;;;;;;;;;;;13.10;99.90;;;;;;5026333;28;19949;-70
2022/11/08 12:59:19;;;;;;;;;;;13.10;99.90;;;;;;5043368;28;19959;-73
2022/11/08 13:01:46;;;;;;;;;;;13.10;99.90;;;;;;5043246;28;19921;-69
2022/11/08 13:04:32;;;;;;;;;;;13.10;99.90;;;;;;5043048;28;19952;-70
2022/11/08 13:07:02;;;;;;;;;;;13.20;99.90;;;;;;5042928;28;19949;-71
2022/11/08 13:09:42;;;;;;;;;;;13.40;99.90;;;;;;5045250;28;20094;-70
2022/11/08 13:12:16;;;;;;;;;;;13.90;99.90;;;;;;5047337;28;19982;-71
2022/11/08 13:14:42;;;;;;;;;;;14.40;99.90;;;;;;5047079;28;19960;-70
2022/11/08 13:17:13;;;;;;;;;;;14.90;99.90;;;;;;5046643;28;19967;-70
2022/11/08 13:19:56;;;;;;;;;;;15.30;99.90;;;;;;5046960;28;19983;-70
2022/11/08 13:22:50;;;;;;;;;;;15.70;99.90;;;;;;5046514;28;20120;-71
2022/11/08 13:25:34;;;;;;;;;;;16.00;99.90;;;;;;5021862;28;19952;-69
2022/11/08 13:28:18;;;;;;;;;;;16.30;99.90;;;;;;5044724;28;19928;-71
2022/11/08 13:30:48;;;;;;;;;;;16.40;99.90;;;;;;5045610;28;19952;-70
2022/11/08 13:33:20;;;;;;;;;;;16.50;99.90;;;;;;5046294;28;19984;-69
2022/11/08 13:35:53;;;;;;;;;;;16.60;99.90;;;;;;5046055;28;19921;-71
2022/11/08 13:38:24;;;;;;;;;;;16.70;99.90;;;;;;5046327;28;20219;-70
2022/11/08 13:41:11;;;;;;;;;;;16.60;99.90;;;;;;5046203;28;19988;-70
2022/11/08 13:43:38;;;;;;;;;;;16.40;99.90;;;;;;5046353;28;19988;-69
2022/11/08 13:46:32;;;;;;;;;;;16.10;99.90;;;;;;5045829;28;19921;-69
2022/11/08 13:49:05;;;;;;;;;;;15.80;99.90;;;;;;4990719;28;19984;-69
2022/11/08 13:51:32;;;;;;;;;;;15.50;99.90;;;;;;5028771;28;19921;-70
2022/11/08 13:53:59;;;;;;;;;;;15.40;99.90;;;;;;5046071;28;19929;-69
2022/11/08 13:56:44;;;;;;;;;;;15.30;99.90;;;;;;5045355;28;19921;-69
2022/11/08 13:59:29;;;;;;;;;;;15.30;99.90;;;;;;5045848;28;19921;-69
2022/11/08 14:01:57;;;;;;;;;;;15.40;99.90;;;;;;5045331;28;19921;-72
2022/11/08 14:04:26;;;;;;;;;;;15.50;99.90;;;;;;5045016;28;19984;-68
2022/11/08 14:07:00;;;;;;;;;;;15.60;99.90;;;;;;5040404;28;19988;-69
2022/11/08 14:09:35;;;;;;;;;;;15.50;99.90;;;;;;5045735;28;19921;-71
2022/11/08 14:12:04;;;;;;;;;;;15.40;99.90;;;;;;5045857;28;19921;-69
2022/11/08 14:14:38;;;;;;;;;;;15.20;99.90;;;;;;5045139;28;19957;-70
2022/11/08 14:17:25;;;;;;;;;;;15.10;99.90;;;;;;5042800;28;19956;-71
2022/11/08 14:19:53;;;;;;;;;;;14.90;99.90;;;;;;5070342;23;19913;-69
2022/11/08 14:22:21;;;;;;;;;;;14.70;99.90;;;;;;5084582;28;19955;-69
2022/11/08 14:24:48;;;;;;;;;;;14.60;99.90;;;;;;5095062;28;20051;-73
2022/11/08 14:27:31;;;;;;;;;;;14.40;99.90;;;;;;5105491;28;19960;-70
2022/11/08 14:30:01;;;;;;;;;;;14.30;99.90;;;;;;5105444;28;19983;-69
2022/11/08 14:32:27;;;;;;;;;;;14.10;99.90;;;;;;5105451;28;20122;-70
2022/11/08 14:35:10;;;;;;;;;;;14.00;99.90;;;;;;5104449;28;19983;-70
2022/11/08 14:37:36;;;;;;;;;;;13.90;99.90;;;;;;5105158;28;19923;-70
2022/11/08 14:40:04;;;;;;;;;;;13.80;99.90;;;;;;5105190;28;20170;-70
2022/11/08 14:42:31;;;;;;;;;;;13.80;99.90;;;;;;5095040;28;19983;-70
2022/11/08 14:44:58;;;;;;;;;;;13.80;99.90;;;;;;5084236;28;19951;-70
2022/11/08 14:47:27;;;;;;;;;;;13.70;99.90;;;;;;5084877;28;19962;-69
2022/11/08 14:49:54;;;;;;;;;;;13.60;99.90;;;;;;5084459;28;20007;-69
2022/11/08 14:52:24;;;;;;;;;;;13.60;99.90;;;;;;5084661;28;20137;-74
2022/11/08 14:54:59;;;;;;;;;;;13.50;99.90;;;;;;5084071;28;19928;-67
2022/11/08 14:57:32;;;;;;;;;;;13.40;99.90;;;;;;5084564;28;20250;-68